createdAt,value
2023-02-19T00:01:42.001Z,100678.31
2023-02-19T00:04:15.151Z,100667.22
2023-02-19T00:06:44.147Z,100667.84
2023-02-19T00:09:13.366Z,100662.84
2023-02-19T00:11:45.782Z,100664.56
2023-02-19T00:14:17.887Z,100668.34
2023-02-19T00:16:46.439Z,100639.84
2023-02-19T00:19:18.149Z,100633.44
2023-02-19T00:21:46.533Z,100644.25
2023-02-19T00:24:17.815Z,100636.31
2023-02-19T00:26:48.250Z,100641.19
2023-02-19T00:29:25.028Z,100630.13
2023-02-19T00:31:53.068Z,100638.50
2023-02-19T00:34:23.121Z,100650.59
2023-02-19T00:36:52.984Z,100636.50
2023-02-19T00:39:21.932Z,100643.84
2023-02-19T00:41:55.059Z,100652.63
2023-02-19T00:44:26.981Z,100653.84
2023-02-19T00:46:59.680Z,100659.75
2023-02-19T00:49:27.715Z,100608.88
2023-02-19T00:52:00.930Z,100639.75
2023-02-19T00:54:33.724Z,100596.03
2023-02-19T00:57:03.182Z,100634.00
2023-02-19T00:59:35.529Z,100617.06
2023-02-19T01:02:06.017Z,100640.50
2023-02-19T01:04:35.049Z,100645.94
2023-02-19T01:07:07.065Z,100640.13
2023-02-19T01:09:45.869Z,100627.75
2023-02-19T01:12:17.315Z,100630.44
2023-02-19T01:14:57.192Z,100610.81
2023-02-19T01:17:29.963Z,100591.00
2023-02-19T01:19:59.675Z,100624.03
2023-02-19T01:22:27.947Z,100586.00
2023-02-19T01:25:01.200Z,100614.97
2023-02-19T01:27:31.235Z,100608.94
2023-02-19T01:30:01.069Z,100608.50
2023-02-19T01:32:32.736Z,100616.03
2023-02-19T01:35:01.733Z,100613.53
2023-02-19T01:37:30.382Z,100590.34
2023-02-19T01:39:59.674Z,100611.63
2023-02-19T01:42:29.052Z,100606.69
2023-02-19T01:45:27.628Z,100604.09
2023-02-19T01:48:07.634Z,100597.66
2023-02-19T01:50:41.442Z,100605.84
2023-02-19T01:53:13.997Z,100600.78
2023-02-19T01:55:45.926Z,100572.88
2023-02-19T01:58:15.848Z,100585.91
2023-02-19T02:00:48.918Z,100590.34
2023-02-19T02:03:17.124Z,100576.97
2023-02-19T02:05:55.425Z,100594.53
2023-02-19T02:08:44.739Z,100584.91
2023-02-19T02:11:15.291Z,100582.63
2023-02-19T02:13:43.513Z,100570.47
2023-02-19T02:16:23.333Z,100570.06
2023-02-19T02:19:02.400Z,100528.16
2023-02-19T02:21:55.595Z,100570.91
2023-02-19T02:24:49.659Z,100567.91
2023-02-19T02:27:39.608Z,100544.66
2023-02-19T02:30:23.096Z,100564.00
2023-02-19T02:32:58.212Z,100550.69
2023-02-19T02:35:33.382Z,100558.44
2023-02-19T02:38:07.134Z,100561.81
2023-02-19T02:40:36.089Z,100523.91
2023-02-19T02:43:04.877Z,100564.41
2023-02-19T02:45:40.085Z,100562.53
2023-02-19T02:48:23.287Z,100539.81
2023-02-19T02:50:55.155Z,100552.66
2023-02-19T02:53:48.518Z,100555.66
2023-02-19T02:56:20.169Z,100549.59
2023-02-19T02:58:50.823Z,100551.91
2023-02-19T03:01:42.681Z,100504.97
2023-02-19T03:04:14.093Z,100531.81
2023-02-19T03:06:56.326Z,100526.44
2023-02-19T03:09:34.823Z,100545.38
2023-02-19T03:12:24.310Z,100542.16
2023-02-19T03:15:16.312Z,100549.69
2023-02-19T03:18:11.545Z,100532.53
2023-02-19T03:20:45.936Z,100543.63
2023-02-19T03:23:15.961Z,100544.91
2023-02-19T03:26:02.389Z,100547.00
2023-02-19T03:28:48.068Z,100542.78
2023-02-19T03:31:21.478Z,100522.59
2023-02-19T03:34:00.507Z,100548.25
2023-02-19T03:36:36.160Z,100537.19
2023-02-19T03:39:11.910Z,100543.66
2023-02-19T03:41:50.399Z,100541.38
2023-02-19T03:44:25.262Z,100551.78
2023-02-19T03:46:58.112Z,100540.53
2023-02-19T03:49:34.793Z,100538.34
2023-02-19T03:52:14.936Z,100545.97
2023-02-19T03:54:53.707Z,100560.50
2023-02-19T03:57:29.356Z,100566.59
2023-02-19T04:00:04.996Z,100542.78
2023-02-19T04:02:41.224Z,100559.28
2023-02-19T04:05:17.229Z,100568.91
2023-02-19T04:07:50.267Z,100560.38
2023-02-19T04:10:20.292Z,100558.91
2023-02-19T04:12:55.362Z,100556.44
2023-02-19T04:15:29.144Z,100558.03
2023-02-19T04:18:03.353Z,100553.66
2023-02-19T04:20:40.850Z,100563.16
2023-02-19T04:23:09.799Z,100561.31
2023-02-19T04:25:41.076Z,100563.78
2023-02-19T04:28:13.095Z,100513.16
2023-02-19T04:30:43.124Z,100575.50
2023-02-19T04:33:11.530Z,100560.91
2023-02-19T04:35:45.045Z,100547.19
2023-02-19T04:38:14.373Z,100567.16
2023-02-19T04:40:43.530Z,100566.72
2023-02-19T04:43:14.758Z,100561.91
2023-02-19T04:45:43.015Z,100559.41
2023-02-19T04:48:26.293Z,100561.69
2023-02-19T04:50:56.896Z,100565.59
2023-02-19T04:53:26.449Z,100544.13
2023-02-19T04:55:55.903Z,100554.78
2023-02-19T04:58:25.421Z,100573.88
2023-02-19T05:00:54.003Z,100564.47
2023-02-19T05:03:22.507Z,100573.00
2023-02-19T05:05:51.287Z,100585.59
2023-02-19T05:08:21.448Z,100572.53
2023-02-19T05:10:49.982Z,100588.25
2023-02-19T05:13:20.054Z,100586.34
2023-02-19T05:16:00.090Z,100570.88
2023-02-19T05:18:28.528Z,100582.13
2023-02-19T05:20:58.584Z,100568.28
2023-02-19T05:23:32.070Z,100595.13
2023-02-19T05:26:01.450Z,100588.41
2023-02-19T05:28:32.021Z,100592.16
2023-02-19T05:31:06.110Z,100569.50
2023-02-19T05:33:35.700Z,100590.69
2023-02-19T05:36:11.307Z,100586.00
2023-02-19T05:38:42.741Z,100583.91
2023-02-19T05:41:16.826Z,100593.69
2023-02-19T05:43:49.106Z,100581.34
2023-02-19T05:46:19.871Z,100596.25
2023-02-19T05:48:50.456Z,100607.25
2023-02-19T05:51:21.547Z,100608.13
2023-02-19T05:53:55.540Z,100622.06
2023-02-19T05:56:35.297Z,100624.78
2023-02-19T05:59:06.899Z,100627.75
2023-02-19T06:01:37.411Z,100635.84
2023-02-19T06:04:07.084Z,100617.56
2023-02-19T06:06:40.012Z,100604.56
2023-02-19T06:09:10.011Z,100640.88
2023-02-19T06:11:39.066Z,100658.16
2023-02-19T06:14:11.251Z,100654.06
2023-02-19T06:16:41.491Z,100644.22
2023-02-19T06:19:10.048Z,100645.47
2023-02-19T06:21:41.521Z,100651.03
2023-02-19T06:24:13.138Z,100632.56
2023-02-19T06:26:43.782Z,100653.00
2023-02-19T06:29:14.714Z,100674.75
2023-02-19T06:31:47.020Z,100676.38
2023-02-19T06:34:16.875Z,100670.78
2023-02-19T06:36:52.667Z,100676.53
2023-02-19T06:39:22.466Z,100669.84
2023-02-19T06:41:54.826Z,100656.69
2023-02-19T06:44:24.225Z,100656.16
2023-02-19T06:47:00.547Z,100682.47
2023-02-19T06:49:31.716Z,100684.13
2023-02-19T06:52:02.003Z,100681.41
2023-02-19T06:54:31.550Z,100680.63
2023-02-19T06:56:59.483Z,100678.53
2023-02-19T06:59:28.300Z,100692.06
2023-02-19T07:01:59.174Z,100702.56
2023-02-19T07:04:29.069Z,100704.41
2023-02-19T07:06:58.336Z,100722.63
2023-02-19T07:09:28.811Z,100713.91
2023-02-19T07:11:58.867Z,100726.63
2023-02-19T07:14:29.791Z,100728.06
2023-02-19T07:16:59.717Z,100714.72
2023-02-19T07:19:30.828Z,100721.41
2023-02-19T07:22:01.782Z,100735.59
2023-02-19T07:24:33.548Z,100731.03
2023-02-19T07:27:05.198Z,100738.34
2023-02-19T07:29:35.735Z,100749.44
2023-02-19T07:32:08.805Z,100748.97
2023-02-19T07:34:45.815Z,100738.78
2023-02-19T07:37:21.293Z,100704.16
2023-02-19T07:39:53.669Z,100725.03
2023-02-19T07:42:26.601Z,100759.47
2023-02-19T07:45:00.504Z,100742.97
2023-02-19T07:47:30.807Z,100762.38
2023-02-19T07:49:59.427Z,100768.66
2023-02-19T07:52:28.959Z,100765.53
2023-02-19T07:54:57.275Z,100750.25
2023-02-19T07:57:37.761Z,100771.56
2023-02-19T08:00:10.891Z,100750.66
2023-02-19T08:02:57.177Z,100768.84
2023-02-19T08:05:28.183Z,100780.78
2023-02-19T08:07:56.556Z,100788.28
2023-02-19T08:10:51.525Z,100756.97
2023-02-19T08:13:23.401Z,100782.44
2023-02-19T08:16:10.900Z,100795.00
2023-02-19T08:18:46.717Z,100807.50
2023-02-19T08:21:15.146Z,100810.81
2023-02-19T08:23:43.353Z,100784.25
2023-02-19T08:26:15.161Z,100825.94
2023-02-19T08:28:45.204Z,100825.75
2023-02-19T08:31:15.560Z,100825.97
2023-02-19T08:33:43.961Z,100820.75
2023-02-19T08:36:16.563Z,100817.19
2023-02-19T08:38:44.529Z,100840.38
2023-02-19T08:41:14.571Z,100817.19
2023-02-19T08:43:49.576Z,100867.31
2023-02-19T08:46:19.322Z,100867.75
2023-02-19T08:48:48.170Z,100868.38
2023-02-19T08:51:18.160Z,100875.28
2023-02-19T08:53:48.567Z,100863.41
2023-02-19T08:56:21.507Z,100858.56
2023-02-19T08:58:51.087Z,100816.34
2023-02-19T09:01:20.357Z,100868.56
2023-02-19T09:03:48.641Z,100870.00
2023-02-19T09:06:22.885Z,100879.41
2023-02-19T09:08:52.188Z,100877.31
2023-02-19T09:11:23.129Z,100884.41
2023-02-19T09:13:52.405Z,100878.91
2023-02-19T09:16:22.243Z,100884.09
2023-02-19T09:18:52.414Z,100879.13
2023-02-19T09:21:21.627Z,100896.69
2023-02-19T09:23:50.245Z,100901.28
2023-02-19T09:26:18.523Z,100911.69
2023-02-19T09:28:48.728Z,100910.28
2023-02-19T09:31:21.287Z,100906.31
2023-02-19T09:33:50.709Z,100851.41
2023-02-19T09:36:22.985Z,100899.34
2023-02-19T09:38:53.912Z,100902.09
2023-02-19T09:41:32.172Z,100886.47
2023-02-19T09:44:02.385Z,100912.00
2023-02-19T09:46:41.426Z,100893.25
2023-02-19T09:49:21.437Z,100899.28
2023-02-19T09:51:54.037Z,100899.06
2023-02-19T09:54:24.217Z,100912.09
2023-02-19T09:56:56.248Z,100919.41
2023-02-19T09:59:28.986Z,100922.13
2023-02-19T10:02:05.232Z,100925.88
2023-02-19T10:04:35.374Z,100933.63
2023-02-19T10:07:04.578Z,100924.44
2023-02-19T10:09:34.200Z,100935.53
2023-02-19T10:12:03.482Z,100889.50
2023-02-19T10:14:38.906Z,100932.13
2023-02-19T10:17:25.009Z,100967.91
2023-02-19T10:19:55.138Z,100976.66
2023-02-19T10:22:27.848Z,100972.28
2023-02-19T10:24:58.113Z,100988.81
2023-02-19T10:27:34.308Z,100981.06
2023-02-19T10:30:05.200Z,100975.19
2023-02-19T10:32:34.978Z,100993.81
2023-02-19T10:35:14.268Z,100983.56
2023-02-19T10:37:52.574Z,100989.22
2023-02-19T10:40:23.987Z,100988.19
2023-02-19T10:43:08.299Z,100988.19
2023-02-19T10:45:48.739Z,100999.88
2023-02-19T10:48:26.032Z,101012.66
2023-02-19T10:51:00.575Z,101003.91
2023-02-19T10:53:47.580Z,101028.31
2023-02-19T10:56:17.992Z,101010.13
2023-02-19T10:58:47.669Z,101014.06
2023-02-19T11:01:22.218Z,101010.91
2023-02-19T11:03:55.891Z,101028.91
2023-02-19T11:06:28.470Z,101037.78
2023-02-19T11:09:08.290Z,101022.66
2023-02-19T11:11:42.933Z,101019.31
2023-02-19T11:14:19.482Z,101026.72
2023-02-19T11:16:52.011Z,101026.28
2023-02-19T11:19:55.936Z,101022.31
2023-02-19T11:22:34.438Z,101030.47
2023-02-19T11:25:27.084Z,101035.47
2023-02-19T11:27:58.032Z,101031.53
2023-02-19T11:30:39.310Z,101037.34
2023-02-19T11:33:28.155Z,101041.72
2023-02-19T11:36:23.261Z,101039.66
2023-02-19T11:38:53.615Z,101018.41
2023-02-19T11:41:43.018Z,101011.44
2023-02-19T11:44:32.418Z,100996.53
2023-02-19T11:47:17.628Z,101018.50
2023-02-19T11:49:57.818Z,101023.31
2023-02-19T11:52:38.416Z,101022.41
2023-02-19T11:55:25.889Z,101012.44
2023-02-19T11:58:16.287Z,101010.78
2023-02-19T12:00:57.020Z,101024.22
2023-02-19T12:03:42.510Z,101007.81
2023-02-19T12:06:21.166Z,101008.09
2023-02-19T12:09:23.360Z,101022.19
2023-02-19T12:12:05.081Z,101021.69
2023-02-19T12:14:55.379Z,101022.44
2023-02-19T12:17:56.596Z,101006.50
2023-02-19T12:20:34.953Z,101018.13
2023-02-19T12:23:36.529Z,101015.25
2023-02-19T12:26:18.326Z,101015.88
2023-02-19T12:29:28.387Z,101014.97
2023-02-19T12:32:22.568Z,100993.59
2023-02-19T12:35:19.624Z,101025.78
2023-02-19T12:37:54.089Z,101012.81
2023-02-19T12:40:39.402Z,101031.38
2023-02-19T12:43:16.911Z,101028.19
2023-02-19T12:45:50.041Z,101030.66
2023-02-19T12:48:31.025Z,101022.44
2023-02-19T12:51:06.647Z,101034.34
2023-02-19T12:53:44.345Z,101031.09
2023-02-19T12:56:18.782Z,101027.13
2023-02-19T12:58:56.170Z,101011.00
2023-02-19T13:01:31.447Z,101010.97
2023-02-19T13:04:18.084Z,101010.03
2023-02-19T13:06:53.194Z,101011.47
2023-02-19T13:09:29.946Z,101005.19
2023-02-19T13:12:03.856Z,101004.59
2023-02-19T13:14:42.940Z,101015.25
2023-02-19T13:17:26.923Z,101008.72
2023-02-19T13:20:15.294Z,101006.59
2023-02-19T13:23:10.296Z,101026.69
2023-02-19T13:26:00.052Z,101018.56
2023-02-19T13:28:45.284Z,101005.16
2023-02-19T13:31:31.972Z,101013.94
2023-02-19T13:34:11.931Z,101010.47
2023-02-19T13:36:41.467Z,101023.03
2023-02-19T13:41:54.776Z,101029.13
2023-02-19T13:44:27.062Z,101022.41
2023-02-19T13:46:57.183Z,100997.78
2023-02-19T13:49:50.978Z,101028.00
2023-02-19T13:52:41.618Z,101031.16
2023-02-19T13:55:58.234Z,101025.72
2023-02-19T13:58:55.333Z,101032.31
2023-02-19T14:02:14.167Z,101043.53
2023-02-19T14:04:51.776Z,101043.38
2023-02-19T14:07:52.631Z,101052.56
2023-02-19T14:10:57.981Z,101043.84
2023-02-19T14:14:08.643Z,101052.22
2023-02-19T14:17:22.104Z,101040.38
2023-02-19T14:19:58.733Z,101049.19
2023-02-19T14:23:15.904Z,101064.66
2023-02-19T14:25:55.490Z,101040.91
2023-02-19T14:28:31.300Z,101057.56
2023-02-19T14:31:04.749Z,101065.44
2023-02-19T14:33:37.974Z,101063.50
2023-02-19T14:36:20.841Z,101057.69
2023-02-19T14:38:54.777Z,101063.50
2023-02-19T14:41:25.952Z,101051.44
2023-02-19T14:43:58.002Z,101054.28
2023-02-19T14:46:32.085Z,101047.94
2023-02-19T14:49:07.969Z,101059.44
2023-02-19T14:51:45.190Z,101057.75
2023-02-19T14:54:19.259Z,101057.00
2023-02-19T14:56:52.179Z,101068.56
2023-02-19T14:59:28.293Z,101062.94
2023-02-19T15:01:58.707Z,101053.13
2023-02-19T15:04:34.378Z,101056.06
2023-02-19T15:07:10.642Z,101069.06
2023-02-19T15:09:53.209Z,101080.53
2023-02-19T15:12:25.945Z,101070.84
2023-02-19T15:15:03.367Z,101076.69
2023-02-19T15:17:39.270Z,101087.78
2023-02-19T15:20:14.440Z,101096.59
2023-02-19T15:22:46.966Z,101082.84
2023-02-19T15:25:21.197Z,101098.75
2023-02-19T15:27:53.027Z,101101.16
2023-02-19T15:30:24.175Z,101108.25
2023-02-19T15:33:00.106Z,101105.47
2023-02-19T15:35:39.052Z,101105.69
2023-02-19T15:38:19.634Z,101104.66
2023-02-19T15:40:52.773Z,101101.31
2023-02-19T15:43:29.342Z,101120.78
2023-02-19T15:46:04.684Z,101118.34
2023-02-19T15:48:41.446Z,101111.03
2023-02-19T15:51:18.905Z,101105.34
2023-02-19T15:53:53.383Z,101100.28
2023-02-19T15:56:29.888Z,101057.03
2023-02-19T15:59:06.005Z,101092.38
2023-02-19T16:01:40.271Z,101090.06
2023-02-19T16:04:27.926Z,101081.94
2023-02-19T16:07:02.139Z,101066.41
2023-02-19T16:09:40.649Z,101092.78
2023-02-19T16:12:23.208Z,101078.56
2023-02-19T16:14:56.709Z,101080.19
2023-02-19T16:17:37.513Z,101084.03
2023-02-19T16:20:13.506Z,101009.75
2023-02-19T16:22:46.862Z,101054.31
2023-02-19T16:25:40.994Z,101031.53
2023-02-19T16:28:20.723Z,101096.19
2023-02-19T16:30:59.598Z,101098.06
2023-02-19T16:33:42.128Z,101083.19
2023-02-19T16:36:42.578Z,101098.28
2023-02-19T16:39:30.276Z,101070.22
2023-02-19T16:42:24.175Z,101098.69
2023-02-19T16:44:52.374Z,101101.44
2023-02-19T16:47:29.912Z,101110.00
2023-02-19T16:50:05.053Z,101103.09
2023-02-19T16:52:33.329Z,101112.50
2023-02-19T16:55:04.397Z,101119.22
2023-02-19T16:57:34.518Z,101129.66
2023-02-19T17:00:02.811Z,101098.69
2023-02-19T17:02:35.563Z,101143.28
2023-02-19T17:05:05.601Z,101139.50
2023-02-19T17:07:37.724Z,101148.69
2023-02-19T17:10:07.268Z,101142.66
2023-02-19T17:12:40.182Z,101138.25
2023-02-19T17:15:10.133Z,101155.19
2023-02-19T17:17:40.448Z,101167.34
2023-02-19T17:20:21.348Z,101178.00
2023-02-19T17:22:49.693Z,101189.53
2023-02-19T17:25:18.403Z,101196.00
2023-02-19T17:27:48.480Z,101191.97
2023-02-19T17:30:25.446Z,101214.63
2023-02-19T17:32:55.429Z,101200.34
2023-02-19T17:35:23.744Z,101191.38
2023-02-19T17:37:54.317Z,101188.66
2023-02-19T17:40:32.774Z,101214.63
2023-02-19T17:43:09.249Z,101219.03
2023-02-19T17:45:37.517Z,101195.53
2023-02-19T17:48:06.614Z,101202.19
2023-02-19T17:50:36.247Z,101212.50
2023-02-19T17:53:07.175Z,101223.94
2023-02-19T17:55:36.795Z,101198.16
2023-02-19T17:58:09.546Z,101204.06
2023-02-19T18:00:38.377Z,101200.88
2023-02-19T18:03:11.374Z,101229.00
2023-02-19T18:05:42.869Z,101230.91
2023-02-19T18:08:13.979Z,101206.97
2023-02-19T18:10:45.648Z,101248.63
2023-02-19T18:13:24.639Z,101253.50
2023-02-19T18:15:59.298Z,101217.47
2023-02-19T18:18:32.307Z,101247.78
2023-02-19T18:21:05.921Z,101265.84
2023-02-19T18:23:38.898Z,101268.19
2023-02-19T18:26:10.473Z,101265.56
2023-02-19T18:28:41.289Z,101267.94
2023-02-19T18:31:11.565Z,101269.94
2023-02-19T18:33:41.278Z,101227.38
2023-02-19T18:36:13.078Z,101238.72
2023-02-19T18:38:42.409Z,101211.94
2023-02-19T18:41:14.430Z,101258.63
2023-02-19T18:43:46.172Z,101244.91
2023-02-19T18:46:17.071Z,101243.66
2023-02-19T18:48:45.591Z,101240.81
2023-02-19T18:51:14.212Z,101271.06
2023-02-19T18:53:53.064Z,101270.44
2023-02-19T18:56:23.333Z,101216.00
2023-02-19T18:58:53.564Z,101235.41
2023-02-19T19:01:31.566Z,101258.69
2023-02-19T19:04:05.383Z,101262.03
2023-02-19T19:06:36.108Z,101256.88
2023-02-19T19:09:04.665Z,101248.59
2023-02-19T19:11:33.111Z,101249.75
2023-02-19T19:14:03.638Z,101232.75
2023-02-19T19:16:32.807Z,101256.38
2023-02-19T19:19:00.922Z,101258.75
2023-02-19T19:21:29.520Z,101265.50
2023-02-19T19:23:59.246Z,101257.41
2023-02-19T19:26:27.400Z,101266.34
2023-02-19T19:28:56.519Z,101257.44
2023-02-19T19:31:27.353Z,101242.31
2023-02-19T19:33:56.097Z,101257.97
2023-02-19T19:36:25.057Z,101269.78
2023-02-19T19:38:54.047Z,101273.41
2023-02-19T19:41:22.819Z,101257.00
2023-02-19T19:43:54.909Z,101265.72
2023-02-19T19:46:24.186Z,101279.22
2023-02-19T19:49:06.029Z,101273.38
2023-02-19T19:51:34.682Z,101292.59
2023-02-19T19:54:08.179Z,101278.91
2023-02-19T19:56:42.282Z,101257.81
2023-02-19T19:59:11.630Z,101283.56
2023-02-19T20:01:48.565Z,101290.94
2023-02-19T20:04:22.009Z,101288.22
2023-02-19T20:06:52.377Z,101250.22
2023-02-19T20:09:25.538Z,101276.47
2023-02-19T20:11:54.767Z,101286.47
2023-02-19T20:14:25.113Z,101189.50
2023-02-19T20:16:55.453Z,101298.91
2023-02-19T20:19:24.884Z,101285.84
2023-02-19T20:21:55.440Z,101244.53
2023-02-19T20:24:28.678Z,101298.88
2023-02-19T20:27:01.007Z,101245.16
2023-02-19T20:29:34.230Z,101289.66
2023-02-19T20:32:04.606Z,101315.22
2023-02-19T20:34:38.704Z,101325.19
2023-02-19T20:37:09.330Z,101319.38
2023-02-19T20:39:38.993Z,101313.38
2023-02-19T20:42:10.934Z,101327.91
2023-02-19T20:44:39.501Z,101325.59
2023-02-19T20:47:09.617Z,101336.53
2023-02-19T20:49:41.416Z,101312.41
2023-02-19T20:52:12.378Z,101323.94
2023-02-19T20:54:43.075Z,101341.56
2023-02-19T20:57:13.217Z,101322.28
2023-02-19T20:59:46.580Z,101316.59
2023-02-19T21:02:19.699Z,101294.06
2023-02-19T21:04:49.063Z,101320.53
2023-02-19T21:07:20.159Z,101320.09
2023-02-19T21:09:48.229Z,101322.00
2023-02-19T21:12:17.180Z,101328.72
2023-02-19T21:14:45.058Z,101328.69
2023-02-19T21:17:14.093Z,101336.88
2023-02-19T21:19:42.333Z,101347.41
2023-02-19T21:22:13.574Z,101328.03
2023-02-19T21:24:42.327Z,101328.59
2023-02-19T21:27:10.944Z,101360.06
2023-02-19T21:29:40.127Z,101356.91
2023-02-19T21:32:10.643Z,101362.31
2023-02-19T21:34:39.412Z,101304.91
2023-02-19T21:37:10.979Z,101356.66
2023-02-19T21:39:43.019Z,101366.19
2023-02-19T21:42:11.414Z,101364.56
2023-02-19T21:44:41.686Z,101341.28
2023-02-19T21:47:13.124Z,101318.34
2023-02-19T21:49:42.862Z,101367.41
2023-02-19T21:52:12.094Z,101328.88
2023-02-19T21:54:41.704Z,101359.97
2023-02-19T21:57:10.451Z,101357.91
2023-02-19T21:59:39.643Z,101339.72
2023-02-19T22:02:08.639Z,101373.31
2023-02-19T22:04:36.683Z,101366.09
2023-02-19T22:07:05.289Z,101366.25
2023-02-19T22:09:34.794Z,101354.63
2023-02-19T22:12:07.799Z,101349.44
2023-02-19T22:14:36.735Z,101348.59
2023-02-19T22:17:07.368Z,101372.38
2023-02-19T22:19:37.456Z,101379.59
2023-02-19T22:22:07.068Z,101382.88
2023-02-19T22:24:36.718Z,101391.47
2023-02-19T22:27:07.981Z,101358.88
2023-02-19T22:29:38.998Z,101382.84
2023-02-19T22:32:07.300Z,101397.66
2023-02-19T22:34:41.109Z,101400.63
2023-02-19T22:37:09.592Z,101402.72
2023-02-19T22:39:40.630Z,101367.34
2023-02-19T22:42:10.541Z,101393.59
2023-02-19T22:44:39.537Z,101385.47
2023-02-19T22:47:07.739Z,101396.63
2023-02-19T22:49:43.600Z,101367.63
2023-02-19T22:52:15.768Z,101399.84
2023-02-19T22:54:44.261Z,101383.75
2023-02-19T22:57:14.018Z,101395.66
2023-02-19T22:59:42.264Z,101367.09
2023-02-19T23:02:11.484Z,101390.47
2023-02-19T23:04:41.976Z,101385.06
2023-02-19T23:07:11.984Z,101366.91
2023-02-19T23:09:40.288Z,101380.41
2023-02-19T23:12:11.885Z,101378.97
2023-02-19T23:14:44.868Z,101362.53
2023-02-19T23:17:15.923Z,101381.63
2023-02-19T23:19:43.938Z,101345.69
2023-02-19T23:22:13.571Z,101351.94
2023-02-19T23:24:42.058Z,101399.78
2023-02-19T23:27:14.598Z,101396.22
2023-02-19T23:29:44.495Z,101404.00
2023-02-19T23:32:14.001Z,101412.91
2023-02-19T23:34:52.288Z,101405.06
2023-02-19T23:37:21.529Z,101414.03
2023-02-19T23:39:49.527Z,101418.44
2023-02-19T23:42:18.441Z,101408.50
2023-02-19T23:44:52.436Z,101390.75
2023-02-19T23:47:22.503Z,101406.47
2023-02-19T23:49:51.386Z,101393.06
2023-02-19T23:52:23.882Z,101392.53
2023-02-19T23:54:52.675Z,101374.84
2023-02-19T23:57:20.589Z,101346.06
2023-02-19T23:59:50.179Z,101367.09
